sensor_id;sensor_type;location;lat;lon;timestamp;P1;durP1;ratioP1;P2;durP2;ratioP2
84351;SDS011;75904;43.524;1.518;2024-03-02T00:01:21;9.88;;;4.30;;
84351;SDS011;75904;43.524;1.518;2024-03-02T00:03:47;10.45;;;4.55;;
84351;SDS011;75904;43.524;1.518;2024-03-02T00:06:12;11.38;;;4.80;;
84351;SDS011;75904;43.524;1.518;2024-03-02T00:08:38;9.25;;;4.70;;
84351;SDS011;75904;43.524;1.518;2024-03-02T00:11:04;11.45;;;5.50;;
84351;SDS011;75904;43.524;1.518;2024-03-02T00:13:29;10.30;;;5.05;;
84351;SDS011;75904;43.524;1.518;2024-03-02T00:15:58;10.68;;;5.07;;
84351;SDS011;75904;43.524;1.518;2024-03-02T00:18:25;12.27;;;5.30;;
84351;SDS011;75904;43.524;1.518;2024-03-02T00:20:57;12.48;;;5.53;;
84351;SDS011;75904;43.524;1.518;2024-03-02T00:23:24;10.40;;;5.10;;
84351;SDS011;75904;43.524;1.518;2024-03-02T00:25:53;11.88;;;5.53;;
84351;SDS011;75904;43.524;1.518;2024-03-02T00:28:21;11.20;;;5.68;;
84351;SDS011;75904;43.524;1.518;2024-03-02T00:30:52;14.48;;;5.82;;
84351;SDS011;75904;43.524;1.518;2024-03-02T00:33:19;11.90;;;5.70;;
84351;SDS011;75904;43.524;1.518;2024-03-02T00:35:46;11.63;;;5.38;;
84351;SDS011;75904;43.524;1.518;2024-03-02T00:38:12;14.43;;;5.63;;
84351;SDS011;75904;43.524;1.518;2024-03-02T00:40:39;10.25;;;5.13;;
84351;SDS011;75904;43.524;1.518;2024-03-02T00:43:05;10.38;;;5.40;;
84351;SDS011;75904;43.524;1.518;2024-03-02T00:45:30;11.10;;;4.97;;
84351;SDS011;75904;43.524;1.518;2024-03-02T00:47:56;9.07;;;4.65;;
84351;SDS011;75904;43.524;1.518;2024-03-02T00:50:22;10.20;;;4.78;;
84351;SDS011;75904;43.524;1.518;2024-03-02T00:52:47;9.88;;;4.97;;
84351;SDS011;75904;43.524;1.518;2024-03-02T00:55:16;10.50;;;4.90;;
84351;SDS011;75904;43.524;1.518;2024-03-02T00:57:41;11.30;;;5.22;;
84351;SDS011;75904;43.524;1.518;2024-03-02T01:00:07;9.88;;;4.85;;
84351;SDS011;75904;43.524;1.518;2024-03-02T01:02:35;8.77;;;4.90;;
84351;SDS011;75904;43.524;1.518;2024-03-02T01:05:00;8.98;;;5.13;;
84351;SDS011;75904;43.524;1.518;2024-03-02T01:07:26;10.95;;;5.40;;
84351;SDS011;75904;43.524;1.518;2024-03-02T01:09:51;10.95;;;5.20;;
84351;SDS011;75904;43.524;1.518;2024-03-02T01:12:17;11.95;;;5.30;;
84351;SDS011;75904;43.524;1.518;2024-03-02T01:14:42;9.88;;;5.05;;
84351;SDS011;75904;43.524;1.518;2024-03-02T01:17:07;9.60;;;4.88;;
84351;SDS011;75904;43.524;1.518;2024-03-02T01:19:33;11.13;;;4.90;;
84351;SDS011;75904;43.524;1.518;2024-03-02T01:21:58;10.95;;;5.07;;
84351;SDS011;75904;43.524;1.518;2024-03-02T01:24:24;9.95;;;4.53;;
84351;SDS011;75904;43.524;1.518;2024-03-02T01:26:49;9.70;;;4.97;;
84351;SDS011;75904;43.524;1.518;2024-03-02T01:29:14;11.75;;;5.25;;
84351;SDS011;75904;43.524;1.518;2024-03-02T01:31:40;8.43;;;4.60;;
84351;SDS011;75904;43.524;1.518;2024-03-02T01:34:07;11.82;;;4.88;;
84351;SDS011;75904;43.524;1.518;2024-03-02T01:36:33;10.82;;;5.20;;
84351;SDS011;75904;43.524;1.518;2024-03-02T01:38:58;11.32;;;5.03;;
84351;SDS011;75904;43.524;1.518;2024-03-02T01:41:23;10.18;;;5.25;;
84351;SDS011;75904;43.524;1.518;2024-03-02T01:43:49;10.23;;;4.82;;
84351;SDS011;75904;43.524;1.518;2024-03-02T01:46:14;11.40;;;5.88;;
84351;SDS011;75904;43.524;1.518;2024-03-02T01:48:39;16.05;;;6.43;;
84351;SDS011;75904;43.524;1.518;2024-03-02T01:51:05;11.27;;;6.47;;
84351;SDS011;75904;43.524;1.518;2024-03-02T01:53:31;17.25;;;7.78;;
84351;SDS011;75904;43.524;1.518;2024-03-02T01:55:57;16.30;;;8.82;;
84351;SDS011;75904;43.524;1.518;2024-03-02T01:58:22;12.88;;;6.70;;
84351;SDS011;75904;43.524;1.518;2024-03-02T02:00:48;12.15;;;5.60;;
84351;SDS011;75904;43.524;1.518;2024-03-02T02:03:14;11.77;;;6.07;;
84351;SDS011;75904;43.524;1.518;2024-03-02T02:05:39;12.30;;;5.93;;
84351;SDS011;75904;43.524;1.518;2024-03-02T02:08:07;9.55;;;4.70;;
84351;SDS011;75904;43.524;1.518;2024-03-02T02:10:32;9.57;;;4.97;;
84351;SDS011;75904;43.524;1.518;2024-03-02T02:12:57;10.38;;;4.60;;
84351;SDS011;75904;43.524;1.518;2024-03-02T02:17:48;10.55;;;4.60;;
84351;SDS011;75904;43.524;1.518;2024-03-02T02:20:14;8.65;;;4.40;;
84351;SDS011;75904;43.524;1.518;2024-03-02T02:22:39;8.77;;;4.35;;
84351;SDS011;75904;43.524;1.518;2024-03-02T02:25:04;8.23;;;4.50;;
84351;SDS011;75904;43.524;1.518;2024-03-02T02:27:30;10.18;;;4.22;;
84351;SDS011;75904;43.524;1.518;2024-03-02T02:29:56;10.20;;;4.43;;
84351;SDS011;75904;43.524;1.518;2024-03-02T02:32:21;9.55;;;4.38;;
84351;SDS011;75904;43.524;1.518;2024-03-02T02:34:46;8.05;;;4.22;;
84351;SDS011;75904;43.524;1.518;2024-03-02T02:37:12;9.32;;;4.13;;
84351;SDS011;75904;43.524;1.518;2024-03-02T02:39:37;8.35;;;4.00;;
84351;SDS011;75904;43.524;1.518;2024-03-02T02:42:02;8.60;;;4.85;;
84351;SDS011;75904;43.524;1.518;2024-03-02T02:44:28;9.60;;;4.50;;
84351;SDS011;75904;43.524;1.518;2024-03-02T02:46:53;9.82;;;5.03;;
84351;SDS011;75904;43.524;1.518;2024-03-02T02:49:18;10.00;;;4.78;;
84351;SDS011;75904;43.524;1.518;2024-03-02T02:51:44;11.68;;;4.97;;
84351;SDS011;75904;43.524;1.518;2024-03-02T02:54:09;10.20;;;4.40;;
84351;SDS011;75904;43.524;1.518;2024-03-02T02:56:34;9.50;;;4.43;;
84351;SDS011;75904;43.524;1.518;2024-03-02T02:59:00;8.20;;;4.32;;
84351;SDS011;75904;43.524;1.518;2024-03-02T03:01:25;9.45;;;4.53;;
84351;SDS011;75904;43.524;1.518;2024-03-02T03:03:50;8.63;;;4.32;;
84351;SDS011;75904;43.524;1.518;2024-03-02T03:06:16;10.07;;;4.13;;
84351;SDS011;75904;43.524;1.518;2024-03-02T03:08:41;9.85;;;4.43;;
84351;SDS011;75904;43.524;1.518;2024-03-02T03:11:06;9.68;;;4.60;;
84351;SDS011;75904;43.524;1.518;2024-03-02T03:13:32;8.95;;;4.50;;
84351;SDS011;75904;43.524;1.518;2024-03-02T03:15:58;8.73;;;4.38;;
84351;SDS011;75904;43.524;1.518;2024-03-02T03:18:24;9.15;;;4.30;;
84351;SDS011;75904;43.524;1.518;2024-03-02T03:20:49;9.25;;;4.03;;
84351;SDS011;75904;43.524;1.518;2024-03-02T03:23:15;8.85;;;4.28;;
84351;SDS011;75904;43.524;1.518;2024-03-02T03:25:41;9.40;;;4.07;;
84351;SDS011;75904;43.524;1.518;2024-03-02T03:28:07;10.27;;;3.95;;
84351;SDS011;75904;43.524;1.518;2024-03-02T03:30:35;8.00;;;4.38;;
84351;SDS011;75904;43.524;1.518;2024-03-02T03:33:02;12.80;;;4.63;;
84351;SDS011;75904;43.524;1.518;2024-03-02T03:35:27;9.15;;;4.30;;
84351;SDS011;75904;43.524;1.518;2024-03-02T03:37:52;11.55;;;4.72;;
84351;SDS011;75904;43.524;1.518;2024-03-02T03:40:18;11.32;;;4.25;;
84351;SDS011;75904;43.524;1.518;2024-03-02T03:42:43;8.75;;;4.00;;
84351;SDS011;75904;43.524;1.518;2024-03-02T03:45:09;9.60;;;3.95;;
84351;SDS011;75904;43.524;1.518;2024-03-02T03:47:34;9.50;;;4.30;;
84351;SDS011;75904;43.524;1.518;2024-03-02T03:50:00;9.02;;;4.35;;
84351;SDS011;75904;43.524;1.518;2024-03-02T03:52:25;8.18;;;3.92;;
84351;SDS011;75904;43.524;1.518;2024-03-02T03:54:50;8.00;;;4.05;;
84351;SDS011;75904;43.524;1.518;2024-03-02T03:57:16;9.05;;;3.97;;
84351;SDS011;75904;43.524;1.518;2024-03-02T03:59:42;8.65;;;4.10;;
84351;SDS011;75904;43.524;1.518;2024-03-02T04:02:08;7.70;;;3.90;;
84351;SDS011;75904;43.524;1.518;2024-03-02T04:04:34;8.32;;;4.18;;
84351;SDS011;75904;43.524;1.518;2024-03-02T04:06:59;7.65;;;3.80;;
84351;SDS011;75904;43.524;1.518;2024-03-02T04:09:25;9.52;;;3.80;;
84351;SDS011;75904;43.524;1.518;2024-03-02T04:11:50;8.23;;;3.88;;
84351;SDS011;75904;43.524;1.518;2024-03-02T04:14:16;7.63;;;3.80;;
84351;SDS011;75904;43.524;1.518;2024-03-02T04:16:41;8.40;;;3.97;;
84351;SDS011;75904;43.524;1.518;2024-03-02T04:19:07;8.30;;;3.85;;
84351;SDS011;75904;43.524;1.518;2024-03-02T04:21:32;7.45;;;3.50;;
84351;SDS011;75904;43.524;1.518;2024-03-02T04:23:57;7.57;;;3.58;;
84351;SDS011;75904;43.524;1.518;2024-03-02T04:26:24;9.60;;;3.80;;
84351;SDS011;75904;43.524;1.518;2024-03-02T04:28:50;6.82;;;3.33;;
84351;SDS011;75904;43.524;1.518;2024-03-02T04:31:16;9.52;;;4.30;;
84351;SDS011;75904;43.524;1.518;2024-03-02T04:33:41;8.88;;;3.88;;
84351;SDS011;75904;43.524;1.518;2024-03-02T04:36:07;8.65;;;3.92;;
84351;SDS011;75904;43.524;1.518;2024-03-02T04:38:34;9.57;;;4.13;;
84351;SDS011;75904;43.524;1.518;2024-03-02T04:41:00;8.43;;;3.78;;
84351;SDS011;75904;43.524;1.518;2024-03-02T04:43:25;8.18;;;3.80;;
84351;SDS011;75904;43.524;1.518;2024-03-02T04:45:50;7.50;;;3.55;;
84351;SDS011;75904;43.524;1.518;2024-03-02T04:48:16;8.70;;;3.63;;
84351;SDS011;75904;43.524;1.518;2024-03-02T04:50:41;7.25;;;3.65;;
84351;SDS011;75904;43.524;1.518;2024-03-02T04:53:06;8.38;;;3.67;;
84351;SDS011;75904;43.524;1.518;2024-03-02T04:55:32;6.72;;;3.40;;
84351;SDS011;75904;43.524;1.518;2024-03-02T04:58:00;7.20;;;3.40;;
84351;SDS011;75904;43.524;1.518;2024-03-02T05:00:25;8.82;;;3.45;;
84351;SDS011;75904;43.524;1.518;2024-03-02T05:02:51;5.50;;;2.85;;
84351;SDS011;75904;43.524;1.518;2024-03-02T05:05:16;7.90;;;3.47;;
84351;SDS011;75904;43.524;1.518;2024-03-02T05:07:42;7.25;;;3.30;;
84351;SDS011;75904;43.524;1.518;2024-03-02T05:10:09;6.72;;;3.08;;
84351;SDS011;75904;43.524;1.518;2024-03-02T05:12:34;6.47;;;3.20;;
84351;SDS011;75904;43.524;1.518;2024-03-02T05:15:20;6.90;;;3.40;;
84351;SDS011;75904;43.524;1.518;2024-03-02T05:17:46;7.07;;;3.80;;
84351;SDS011;75904;43.524;1.518;2024-03-02T05:20:12;8.82;;;3.58;;
84351;SDS011;75904;43.524;1.518;2024-03-02T05:22:38;8.05;;;3.35;;
84351;SDS011;75904;43.524;1.518;2024-03-02T05:25:04;7.60;;;3.50;;
84351;SDS011;75904;43.524;1.518;2024-03-02T05:27:30;8.43;;;3.45;;
84351;SDS011;75904;43.524;1.518;2024-03-02T05:29:56;6.80;;;3.28;;
84351;SDS011;75904;43.524;1.518;2024-03-02T05:32:21;8.38;;;3.38;;
84351;SDS011;75904;43.524;1.518;2024-03-02T05:34:47;7.40;;;3.05;;
84351;SDS011;75904;43.524;1.518;2024-03-02T05:37:12;7.10;;;3.42;;
84351;SDS011;75904;43.524;1.518;2024-03-02T05:39:37;7.20;;;3.47;;
84351;SDS011;75904;43.524;1.518;2024-03-02T05:42:03;7.30;;;3.30;;
84351;SDS011;75904;43.524;1.518;2024-03-02T05:44:28;6.97;;;3.10;;
84351;SDS011;75904;43.524;1.518;2024-03-02T05:46:54;7.50;;;3.28;;
84351;SDS011;75904;43.524;1.518;2024-03-02T05:49:20;5.15;;;2.72;;
84351;SDS011;75904;43.524;1.518;2024-03-02T05:51:45;5.20;;;2.70;;
84351;SDS011;75904;43.524;1.518;2024-03-02T05:54:10;7.32;;;3.05;;
84351;SDS011;75904;43.524;1.518;2024-03-02T05:56:36;6.95;;;3.13;;
84351;SDS011;75904;43.524;1.518;2024-03-02T05:59:01;10.02;;;2.88;;
84351;SDS011;75904;43.524;1.518;2024-03-02T06:04:04;5.35;;;2.67;;
84351;SDS011;75904;43.524;1.518;2024-03-02T06:06:29;5.97;;;2.65;;
84351;SDS011;75904;43.524;1.518;2024-03-02T06:08:55;7.35;;;2.83;;
84351;SDS011;75904;43.524;1.518;2024-03-02T06:11:21;5.45;;;2.67;;
84351;SDS011;75904;43.524;1.518;2024-03-02T06:13:46;8.10;;;2.83;;
84351;SDS011;75904;43.524;1.518;2024-03-02T06:16:12;8.48;;;3.08;;
84351;SDS011;75904;43.524;1.518;2024-03-02T06:18:37;4.80;;;2.50;;
84351;SDS011;75904;43.524;1.518;2024-03-02T06:21:03;5.68;;;2.47;;
84351;SDS011;75904;43.524;1.518;2024-03-02T06:23:28;7.97;;;2.97;;
84351;SDS011;75904;43.524;1.518;2024-03-02T06:25:54;6.65;;;3.03;;
84351;SDS011;75904;43.524;1.518;2024-03-02T06:28:19;4.80;;;2.72;;
84351;SDS011;75904;43.524;1.518;2024-03-02T06:30:45;7.40;;;2.70;;
84351;SDS011;75904;43.524;1.518;2024-03-02T06:33:10;4.53;;;2.55;;
84351;SDS011;75904;43.524;1.518;2024-03-02T06:35:36;6.28;;;2.70;;
84351;SDS011;75904;43.524;1.518;2024-03-02T06:38:01;6.60;;;2.92;;
84351;SDS011;75904;43.524;1.518;2024-03-02T06:40:26;6.70;;;2.72;;
84351;SDS011;75904;43.524;1.518;2024-03-02T06:42:52;7.45;;;3.10;;
84351;SDS011;75904;43.524;1.518;2024-03-02T06:45:17;4.38;;;2.30;;
84351;SDS011;75904;43.524;1.518;2024-03-02T06:47:43;6.90;;;2.85;;
84351;SDS011;75904;43.524;1.518;2024-03-02T06:50:08;6.80;;;2.70;;
84351;SDS011;75904;43.524;1.518;2024-03-02T06:52:34;6.00;;;2.53;;
84351;SDS011;75904;43.524;1.518;2024-03-02T06:55:00;5.72;;;2.58;;
84351;SDS011;75904;43.524;1.518;2024-03-02T06:57:25;6.65;;;2.40;;
84351;SDS011;75904;43.524;1.518;2024-03-02T06:59:50;8.48;;;3.03;;
84351;SDS011;75904;43.524;1.518;2024-03-02T07:02:18;4.72;;;2.72;;
84351;SDS011;75904;43.524;1.518;2024-03-02T07:04:44;7.68;;;2.63;;
84351;SDS011;75904;43.524;1.518;2024-03-02T07:07:10;6.75;;;2.90;;
84351;SDS011;75904;43.524;1.518;2024-03-02T07:09:36;6.60;;;2.50;;
84351;SDS011;75904;43.524;1.518;2024-03-02T07:12:01;5.85;;;2.50;;
84351;SDS011;75904;43.524;1.518;2024-03-02T07:14:26;6.65;;;2.45;;
84351;SDS011;75904;43.524;1.518;2024-03-02T07:17:12;6.20;;;2.63;;
84351;SDS011;75904;43.524;1.518;2024-03-02T07:19:37;4.30;;;2.22;;
84351;SDS011;75904;43.524;1.518;2024-03-02T07:22:05;7.20;;;2.80;;
84351;SDS011;75904;43.524;1.518;2024-03-02T07:24:32;7.63;;;2.90;;
84351;SDS011;75904;43.524;1.518;2024-03-02T07:26:58;6.28;;;3.10;;
84351;SDS011;75904;43.524;1.518;2024-03-02T07:29:23;7.18;;;2.95;;
84351;SDS011;75904;43.524;1.518;2024-03-02T07:31:49;7.10;;;2.80;;
84351;SDS011;75904;43.524;1.518;2024-03-02T07:34:14;7.20;;;2.80;;
84351;SDS011;75904;43.524;1.518;2024-03-02T07:36:40;5.95;;;2.60;;
84351;SDS011;75904;43.524;1.518;2024-03-02T07:39:05;7.75;;;2.88;;
84351;SDS011;75904;43.524;1.518;2024-03-02T07:41:30;6.53;;;2.70;;
84351;SDS011;75904;43.524;1.518;2024-03-02T07:43:56;5.93;;;2.60;;
84351;SDS011;75904;43.524;1.518;2024-03-02T07:46:21;6.95;;;3.03;;
84351;SDS011;75904;43.524;1.518;2024-03-02T07:48:47;6.45;;;2.95;;
84351;SDS011;75904;43.524;1.518;2024-03-02T07:51:12;6.47;;;2.80;;
84351;SDS011;75904;43.524;1.518;2024-03-02T07:53:39;6.70;;;3.10;;
84351;SDS011;75904;43.524;1.518;2024-03-02T07:56:04;7.85;;;3.10;;
84351;SDS011;75904;43.524;1.518;2024-03-02T07:58:31;8.18;;;3.03;;
84351;SDS011;75904;43.524;1.518;2024-03-02T08:00:56;6.60;;;3.25;;
84351;SDS011;75904;43.524;1.518;2024-03-02T08:03:21;7.82;;;3.33;;
84351;SDS011;75904;43.524;1.518;2024-03-02T08:05:47;9.77;;;2.85;;
84351;SDS011;75904;43.524;1.518;2024-03-02T08:08:12;11.32;;;4.13;;
84351;SDS011;75904;43.524;1.518;2024-03-02T08:10:37;6.65;;;3.45;;
84351;SDS011;75904;43.524;1.518;2024-03-02T08:13:03;7.18;;;3.17;;
84351;SDS011;75904;43.524;1.518;2024-03-02T08:15:28;5.25;;;2.70;;
84351;SDS011;75904;43.524;1.518;2024-03-02T08:17:54;5.65;;;2.55;;
84351;SDS011;75904;43.524;1.518;2024-03-02T08:20:19;5.85;;;2.58;;
84351;SDS011;75904;43.524;1.518;2024-03-02T08:22:44;5.85;;;2.75;;
84351;SDS011;75904;43.524;1.518;2024-03-02T08:25:10;5.97;;;2.60;;
84351;SDS011;75904;43.524;1.518;2024-03-02T08:27:36;5.35;;;2.53;;
84351;SDS011;75904;43.524;1.518;2024-03-02T08:30:01;8.60;;;2.70;;
84351;SDS011;75904;43.524;1.518;2024-03-02T08:32:31;6.63;;;3.47;;
84351;SDS011;75904;43.524;1.518;2024-03-02T08:34:56;6.22;;;2.92;;
84351;SDS011;75904;43.524;1.518;2024-03-02T08:37:22;8.70;;;3.10;;
84351;SDS011;75904;43.524;1.518;2024-03-02T08:39:47;5.55;;;2.78;;
84351;SDS011;75904;43.524;1.518;2024-03-02T08:42:12;6.53;;;2.60;;
84351;SDS011;75904;43.524;1.518;2024-03-02T08:44:38;5.45;;;2.55;;
84351;SDS011;75904;43.524;1.518;2024-03-02T08:47:03;6.57;;;2.90;;
84351;SDS011;75904;43.524;1.518;2024-03-02T08:49:29;6.20;;;2.70;;
84351;SDS011;75904;43.524;1.518;2024-03-02T08:51:54;5.32;;;2.42;;
84351;SDS011;75904;43.524;1.518;2024-03-02T08:54:23;7.75;;;2.30;;
84351;SDS011;75904;43.524;1.518;2024-03-02T08:56:48;5.45;;;2.28;;
84351;SDS011;75904;43.524;1.518;2024-03-02T08:59:15;4.45;;;2.45;;
84351;SDS011;75904;43.524;1.518;2024-03-02T09:01:40;8.70;;;2.50;;
84351;SDS011;75904;43.524;1.518;2024-03-02T09:04:07;4.85;;;2.60;;
84351;SDS011;75904;43.524;1.518;2024-03-02T09:06:33;5.78;;;2.17;;
84351;SDS011;75904;43.524;1.518;2024-03-02T09:08:59;8.43;;;2.80;;
84351;SDS011;75904;43.524;1.518;2024-03-02T09:11:24;6.93;;;2.50;;
84351;SDS011;75904;43.524;1.518;2024-03-02T09:13:50;6.13;;;2.25;;
84351;SDS011;75904;43.524;1.518;2024-03-02T09:16:16;5.32;;;2.45;;
84351;SDS011;75904;43.524;1.518;2024-03-02T09:18:41;5.45;;;2.60;;
84351;SDS011;75904;43.524;1.518;2024-03-02T09:21:07;7.20;;;2.60;;
84351;SDS011;75904;43.524;1.518;2024-03-02T09:23:33;6.65;;;2.78;;
84351;SDS011;75904;43.524;1.518;2024-03-02T09:25:59;7.50;;;2.67;;
84351;SDS011;75904;43.524;1.518;2024-03-02T09:28:24;8.93;;;2.90;;
84351;SDS011;75904;43.524;1.518;2024-03-02T09:30:49;7.32;;;2.50;;
84351;SDS011;75904;43.524;1.518;2024-03-02T09:33:15;7.13;;;2.78;;
84351;SDS011;75904;43.524;1.518;2024-03-02T09:35:40;7.05;;;2.53;;
84351;SDS011;75904;43.524;1.518;2024-03-02T09:38:05;8.30;;;2.90;;
84351;SDS011;75904;43.524;1.518;2024-03-02T09:40:31;6.47;;;2.97;;
84351;SDS011;75904;43.524;1.518;2024-03-02T09:42:57;7.95;;;2.75;;
84351;SDS011;75904;43.524;1.518;2024-03-02T09:45:24;9.98;;;2.90;;
84351;SDS011;75904;43.524;1.518;2024-03-02T09:47:50;10.60;;;2.78;;
84351;SDS011;75904;43.524;1.518;2024-03-02T09:50:16;8.95;;;3.25;;
84351;SDS011;75904;43.524;1.518;2024-03-02T09:52:42;6.57;;;2.53;;
84351;SDS011;75904;43.524;1.518;2024-03-02T09:55:08;8.52;;;3.22;;
84351;SDS011;75904;43.524;1.518;2024-03-02T09:57:33;9.93;;;3.03;;
84351;SDS011;75904;43.524;1.518;2024-03-02T09:59:59;8.63;;;2.90;;
84351;SDS011;75904;43.524;1.518;2024-03-02T10:02:24;7.95;;;2.50;;
84351;SDS011;75904;43.524;1.518;2024-03-02T10:04:49;9.02;;;2.65;;
84351;SDS011;75904;43.524;1.518;2024-03-02T10:07:16;8.45;;;2.92;;
84351;SDS011;75904;43.524;1.518;2024-03-02T10:09:42;11.65;;;2.45;;
84351;SDS011;75904;43.524;1.518;2024-03-02T10:12:10;7.70;;;2.47;;
84351;SDS011;75904;43.524;1.518;2024-03-02T10:14:39;11.00;;;3.08;;
84351;SDS011;75904;43.524;1.518;2024-03-02T10:17:07;7.57;;;2.45;;
84351;SDS011;75904;43.524;1.518;2024-03-02T10:19:34;7.95;;;2.80;;
84351;SDS011;75904;43.524;1.518;2024-03-02T10:22:09;7.35;;;2.55;;
84351;SDS011;75904;43.524;1.518;2024-03-02T10:24:41;8.57;;;2.55;;
84351;SDS011;75904;43.524;1.518;2024-03-02T10:27:10;8.10;;;2.50;;
84351;SDS011;75904;43.524;1.518;2024-03-02T10:29:40;8.68;;;2.80;;
84351;SDS011;75904;43.524;1.518;2024-03-02T10:32:08;5.25;;;2.05;;
84351;SDS011;75904;43.524;1.518;2024-03-02T10:34:36;6.68;;;2.83;;
84351;SDS011;75904;43.524;1.518;2024-03-02T10:37:02;7.90;;;2.72;;
84351;SDS011;75904;43.524;1.518;2024-03-02T10:39:28;6.00;;;2.28;;
84351;SDS011;75904;43.524;1.518;2024-03-02T10:41:55;4.60;;;2.30;;
84351;SDS011;75904;43.524;1.518;2024-03-02T10:44:21;7.28;;;2.38;;
84351;SDS011;75904;43.524;1.518;2024-03-02T10:46:48;6.10;;;2.58;;
84351;SDS011;75904;43.524;1.518;2024-03-02T10:49:15;5.75;;;2.10;;
84351;SDS011;75904;43.524;1.518;2024-03-02T10:51:40;9.40;;;2.70;;
84351;SDS011;75904;43.524;1.518;2024-03-02T10:54:06;8.75;;;2.20;;
84351;SDS011;75904;43.524;1.518;2024-03-02T10:56:41;9.10;;;2.90;;
84351;SDS011;75904;43.524;1.518;2024-03-02T11:01:59;9.38;;;3.30;;
84351;SDS011;75904;43.524;1.518;2024-03-02T11:04:26;7.97;;;2.42;;
84351;SDS011;75904;43.524;1.518;2024-03-02T11:06:56;7.53;;;3.05;;
84351;SDS011;75904;43.524;1.518;2024-03-02T11:09:25;7.47;;;2.72;;
84351;SDS011;75904;43.524;1.518;2024-03-02T11:14:43;9.80;;;2.53;;
84351;SDS011;75904;43.524;1.518;2024-03-02T11:17:08;10.10;;;2.65;;
84351;SDS011;75904;43.524;1.518;2024-03-02T11:19:35;7.32;;;2.70;;
84351;SDS011;75904;43.524;1.518;2024-03-02T11:22:03;5.70;;;2.40;;
84351;SDS011;75904;43.524;1.518;2024-03-02T11:24:30;6.63;;;2.42;;
84351;SDS011;75904;43.524;1.518;2024-03-02T11:27:00;7.53;;;2.55;;
84351;SDS011;75904;43.524;1.518;2024-03-02T11:32:06;7.72;;;2.50;;
84351;SDS011;75904;43.524;1.518;2024-03-02T11:34:42;7.63;;;2.13;;
84351;SDS011;75904;43.524;1.518;2024-03-02T11:37:10;5.40;;;2.38;;
84351;SDS011;75904;43.524;1.518;2024-03-02T11:39:37;6.90;;;2.15;;
84351;SDS011;75904;43.524;1.518;2024-03-02T11:42:05;7.88;;;2.20;;
84351;SDS011;75904;43.524;1.518;2024-03-02T11:44:35;4.97;;;2.40;;
84351;SDS011;75904;43.524;1.518;2024-03-02T11:47:02;9.13;;;2.83;;
84351;SDS011;75904;43.524;1.518;2024-03-02T11:49:41;7.28;;;2.60;;
84351;SDS011;75904;43.524;1.518;2024-03-02T11:52:19;6.95;;;2.15;;
84351;SDS011;75904;43.524;1.518;2024-03-02T11:54:46;7.45;;;2.30;;
84351;SDS011;75904;43.524;1.518;2024-03-02T11:57:13;7.15;;;2.15;;
84351;SDS011;75904;43.524;1.518;2024-03-02T11:59:40;8.02;;;2.08;;
84351;SDS011;75904;43.524;1.518;2024-03-02T12:02:06;6.55;;;2.40;;
84351;SDS011;75904;43.524;1.518;2024-03-02T12:04:39;6.18;;;2.42;;
84351;SDS011;75904;43.524;1.518;2024-03-02T12:07:05;6.35;;;2.22;;
84351;SDS011;75904;43.524;1.518;2024-03-02T12:09:30;7.80;;;2.60;;
84351;SDS011;75904;43.524;1.518;2024-03-02T12:12:09;5.90;;;2.00;;
84351;SDS011;75904;43.524;1.518;2024-03-02T12:14:36;8.30;;;2.30;;
84351;SDS011;75904;43.524;1.518;2024-03-02T12:17:02;6.22;;;2.65;;
84351;SDS011;75904;43.524;1.518;2024-03-02T12:19:28;6.93;;;2.58;;
84351;SDS011;75904;43.524;1.518;2024-03-02T12:21:58;9.25;;;2.70;;
84351;SDS011;75904;43.524;1.518;2024-03-02T12:24:26;8.05;;;2.63;;
84351;SDS011;75904;43.524;1.518;2024-03-02T12:26:52;6.55;;;2.50;;
84351;SDS011;75904;43.524;1.518;2024-03-02T12:29:18;7.13;;;2.67;;
84351;SDS011;75904;43.524;1.518;2024-03-02T12:31:45;8.98;;;2.78;;
84351;SDS011;75904;43.524;1.518;2024-03-02T12:34:17;6.88;;;2.10;;
84351;SDS011;75904;43.524;1.518;2024-03-02T12:36:43;6.18;;;2.45;;
84351;SDS011;75904;43.524;1.518;2024-03-02T12:39:12;4.80;;;2.40;;
84351;SDS011;75904;43.524;1.518;2024-03-02T12:41:38;7.75;;;2.55;;
84351;SDS011;75904;43.524;1.518;2024-03-02T12:44:04;9.30;;;2.50;;
84351;SDS011;75904;43.524;1.518;2024-03-02T12:46:30;6.03;;;2.65;;
84351;SDS011;75904;43.524;1.518;2024-03-02T12:49:04;6.50;;;2.50;;
84351;SDS011;75904;43.524;1.518;2024-03-02T12:51:33;9.73;;;2.97;;
84351;SDS011;75904;43.524;1.518;2024-03-02T12:53:58;4.82;;;2.20;;
84351;SDS011;75904;43.524;1.518;2024-03-02T12:56:25;5.75;;;2.40;;
84351;SDS011;75904;43.524;1.518;2024-03-02T12:58:56;6.85;;;2.20;;
84351;SDS011;75904;43.524;1.518;2024-03-02T13:01:22;6.60;;;2.45;;
84351;SDS011;75904;43.524;1.518;2024-03-02T13:03:52;9.18;;;2.55;;
84351;SDS011;75904;43.524;1.518;2024-03-02T13:06:19;7.22;;;2.70;;
84351;SDS011;75904;43.524;1.518;2024-03-02T13:08:45;9.52;;;2.60;;
84351;SDS011;75904;43.524;1.518;2024-03-02T13:11:11;7.72;;;3.45;;
84351;SDS011;75904;43.524;1.518;2024-03-02T13:13:38;4.63;;;2.13;;
84351;SDS011;75904;43.524;1.518;2024-03-02T13:16:07;5.65;;;2.38;;
84351;SDS011;75904;43.524;1.518;2024-03-02T13:18:34;7.35;;;2.28;;
84351;SDS011;75904;43.524;1.518;2024-03-02T13:21:00;6.55;;;2.22;;
84351;SDS011;75904;43.524;1.518;2024-03-02T13:23:25;8.35;;;2.60;;
84351;SDS011;75904;43.524;1.518;2024-03-02T13:25:50;8.95;;;2.80;;
84351;SDS011;75904;43.524;1.518;2024-03-02T13:28:16;6.22;;;2.30;;
84351;SDS011;75904;43.524;1.518;2024-03-02T13:30:41;7.32;;;2.28;;
84351;SDS011;75904;43.524;1.518;2024-03-02T13:33:07;5.82;;;2.58;;
84351;SDS011;75904;43.524;1.518;2024-03-02T13:35:32;6.22;;;2.47;;
84351;SDS011;75904;43.524;1.518;2024-03-02T13:37:57;6.68;;;2.40;;
84351;SDS011;75904;43.524;1.518;2024-03-02T13:40:23;8.30;;;2.55;;
84351;SDS011;75904;43.524;1.518;2024-03-02T13:42:48;5.00;;;2.08;;
84351;SDS011;75904;43.524;1.518;2024-03-02T13:45:15;6.03;;;2.60;;
84351;SDS011;75904;43.524;1.518;2024-03-02T13:47:42;11.07;;;2.97;;
84351;SDS011;75904;43.524;1.518;2024-03-02T13:50:07;5.35;;;2.20;;
84351;SDS011;75904;43.524;1.518;2024-03-02T13:52:33;7.85;;;2.42;;
84351;SDS011;75904;43.524;1.518;2024-03-02T13:54:58;5.30;;;2.20;;
84351;SDS011;75904;43.524;1.518;2024-03-02T13:57:24;6.22;;;2.10;;
84351;SDS011;75904;43.524;1.518;2024-03-02T13:59:49;5.50;;;1.90;;
84351;SDS011;75904;43.524;1.518;2024-03-02T14:02:17;8.70;;;2.50;;
84351;SDS011;75904;43.524;1.518;2024-03-02T14:04:42;6.65;;;1.98;;
84351;SDS011;75904;43.524;1.518;2024-03-02T14:07:08;6.57;;;2.05;;
84351;SDS011;75904;43.524;1.518;2024-03-02T14:09:33;5.85;;;2.30;;
84351;SDS011;75904;43.524;1.518;2024-03-02T14:11:59;5.63;;;2.50;;
84351;SDS011;75904;43.524;1.518;2024-03-02T14:14:26;5.03;;;2.00;;
84351;SDS011;75904;43.524;1.518;2024-03-02T14:16:52;6.45;;;2.10;;
84351;SDS011;75904;43.524;1.518;2024-03-02T14:19:18;6.38;;;1.98;;
84351;SDS011;75904;43.524;1.518;2024-03-02T14:21:43;4.80;;;2.28;;
84351;SDS011;75904;43.524;1.518;2024-03-02T14:24:09;6.88;;;2.20;;
84351;SDS011;75904;43.524;1.518;2024-03-02T14:26:35;6.95;;;2.17;;
84351;SDS011;75904;43.524;1.518;2024-03-02T14:29:01;5.88;;;2.22;;
84351;SDS011;75904;43.524;1.518;2024-03-02T14:31:28;8.80;;;2.30;;
84351;SDS011;75904;43.524;1.518;2024-03-02T14:33:53;5.95;;;1.98;;
84351;SDS011;75904;43.524;1.518;2024-03-02T14:36:19;6.68;;;2.10;;
84351;SDS011;75904;43.524;1.518;2024-03-02T14:38:45;5.57;;;2.28;;
84351;SDS011;75904;43.524;1.518;2024-03-02T14:41:10;7.35;;;2.20;;
84351;SDS011;75904;43.524;1.518;2024-03-02T14:43:36;8.48;;;2.40;;
84351;SDS011;75904;43.524;1.518;2024-03-02T14:46:02;4.43;;;1.77;;
84351;SDS011;75904;43.524;1.518;2024-03-02T14:48:28;6.13;;;2.25;;
84351;SDS011;75904;43.524;1.518;2024-03-02T14:50:53;7.68;;;2.08;;
84351;SDS011;75904;43.524;1.518;2024-03-02T14:53:19;5.90;;;2.20;;